Leon Schubert

Olheiro - Bayer Leverkusen
3 Dez 2028
Domingo
Processo

Personalidade

Adaptabilidade (4) Ambição (10) Controvérsia (9) Lealdade (20) Pressão (20) Profissionalismo (12) Espírito Esportivo (1) Temperamento (7)

Perfil

Estilo de Treinamento Democrático
Licença Continental Pro
Determinação 10
Gestão de Pessoas 8
Motivação 13
Disciplina 11
Satisfação no Trabalho
89%
Fadiga
0%
Função Olheiro
Salário 58.5K p/s
Contrato 14.03.2029

Desempenho

Comportamento Bom
Eficácia do Treinamento
50%
Desenvolvimento do Jogador
50%
Prevenção de Lesões
40%
Implementação Tática
55%

Eventos Recentes

Participou de uma reunião de recrutamento agora
Participou de uma reunião de recrutamento agora
Participou de uma reunião de recrutamento agora
Avaliou um jogador agora
Avaliou um jogador agora
Avaliou um jogador agora
Avaliou um jogador agora
Observou uma partida agora

Monitorando agora

247
Jogador Clube Status Habilidade Confiança Observado Última observação Último voto
Felipe Augusto KAA Gent Ativo 141 / 142 40% 5 01.12.2028 -
Ayyoub Bouaddi Stoke City Ativo 152 / 159 40% 2 01.12.2028 -
Kyrell Wilson Barnet Ativo 129 / 122 40% 2 01.12.2028 -
Philipp Maybach Red Bull Salzburg Ativo 110 / 126 40% 1 01.12.2028 -
Olivier Mambwa Young Boys Ativo 117 / 125 40% 3 28.11.2028 -
Tommy Watson Cardiff City Ativo 137 / 137 40% 4 28.11.2028 -
Tyler Fletcher Rotherham United Ativo 118 / 128 40% 2 28.11.2028 -
Riquelme Thompson-Jones Accrington Stanley Ativo 115 / 121 40% 1 27.11.2028 -
Veljko Milosavljević Bournemouth Ativo 156 / 158 40% 1 27.11.2028 -
Chupete Málaga Ativo 150 / 142 40% 2 26.11.2028 -
Matías Abaldo Ferencvaros Ativo 128 / 140 40% 4 26.11.2028 -
Luis Otávio Orlando City Ativo 130 / 135 40% 3 25.11.2028 -
Vitor Roque TSG Hoffenheim Ativo 155 / 154 40% 5 23.11.2028 -
Ibrahim Osman Norwich City Ativo 141 / 151 40% 2 23.11.2028 -
Nəriman Axundzadə Columbus Crew Ativo 127 / 133 40% 3 22.11.2028 -
Amin Chiakha Rosenborg Ativo 117 / 129 40% 3 22.11.2028 -
Martim Cunha Porto Ativo 112 / 113 40% 1 22.11.2028 -
Thulani Manyama Portland Timbers Ativo 130 / 125 40% 1 22.11.2028 -
Marc Bernal Sevilla Ativo 156 / 153 40% 5 21.11.2028 -
Sindre Walle Egeli Udinese Ativo 137 / 141 40% 2 18.11.2028 -
Umeh Emmanuel Zurich Ativo 128 / 131 40% 2 17.11.2028 -
Chris Rigg West Ham United Ativo 139 / 147 40% 1 17.11.2028 -
Sebastian Rodriguez Houston Dynamo Ativo 122 / 114 40% 1 17.11.2028 -
Jorge Salinas Racing Santander Ativo 138 / 141 40% 5 16.11.2028 -
Noah Markmann Esbjerg Ativo 127 / 128 40% 2 16.11.2028 -
Nicolò Tresoldi Club Brugge Ativo 150 / 147 40% 2 15.11.2028 -
Francesco Pio Esposito Frosinone Ativo 159 / 152 40% 1 15.11.2028 -
Pau Cubarsí Real Sociedad Ativo 170 / 171 40% 15 14.11.2028 -
Ryan Francisco Palmeiras Ativo 114 / 133 40% 4 12.11.2028 -
Harry Gray Harrogate Town Ativo 132 / 137 40% 2 12.11.2028 -
Edmund Baidoo St. Gallen Ativo 127 / 130 40% 5 11.11.2028 -
Mihajlo Cvetković Club Brugge Ativo 126 / 135 40% 3 11.11.2028 -
Trey Nyoni Rotherham United Ativo 146 / 150 40% 6 10.11.2028 -
Jorthy Mokio ADO Den Haag Ativo 130 / 138 40% 5 10.11.2028 -
Santiago Castro OGC Nice Ativo 157 / 158 40% 1 10.11.2028 -
Jayden Danns Bradford City Ativo 138 / 141 40% 2 09.11.2028 -
Norman Bassette Coventry City Ativo 132 / 121 40% 1 09.11.2028 -
Eduardo Lozano Botafogo Ativo 155 / 159 40% 3 05.11.2028 -
Celías Ingenthron Platense Ativo 119 / 117 40% 2 04.11.2028 -
Leon Grgić Werder Bremen Ativo 139 / 150 40% 1 04.11.2028 -
Marc Guiu Köln Ativo 139 / 145 40% 1 04.11.2028 -
Matias Siltanen Malmo FF Ativo 131 / 139 40% 6 02.11.2028 -
Andrija Bulatović Chamois Niortais Ativo 130 / 143 40% 2 02.11.2028 -
Christian Kofane Hamburger SV Ativo 148 / 157 40% 5 02.11.2028 -
Endrick Boca Juniors Ativo 171 / 164 40% 7 31.10.2028 -
Mamadou Doumbia Rotherham United Ativo 135 / 129 40% 1 31.10.2028 -
Sota Kitano Red Bull Salzburg Ativo 135 / 131 40% 2 30.10.2028 -
Mikey Moore Stockport County Ativo 136 / 146 40% 1 30.10.2028 -
Max Dean KAA Gent Ativo 119 / 119 40% 2 29.10.2028 -
Xavier Biscayzacú Penarol Ativo 125 / 128 40% 2 29.10.2028 -
Matías Fernández-Pardo Atalanta Ativo 147 / 153 40% 1 28.10.2028 -
Peyton Miller New England Revolution Ativo 107 / 133 40% 1 24.10.2028 -
Miguel Figueiredo Benfica Ativo 125 / 135 40% 2 23.10.2028 -
Rayan Hamburger SV Ativo 150 / 147 40% 4 21.10.2028 Observar
Idan Toklomati Charlotte Football Club Ativo 139 / 135 40% 1 21.10.2028 -
Harrison Armstrong Ipswich Town Ativo 136 / 147 40% 1 21.10.2028 -
Felipe Chávez Werder Bremen Ativo 135 / 131 40% 1 19.10.2028 -
Marko Zebić Lucko Ativo 112 / 126 40% 1 17.10.2028 -
Germán Barbas Racing Santander Ativo 120 / 123 40% 1 17.10.2028 -
Giovanni Leoni Lincoln City Ativo 148 / 154 40% 5 15.10.2028 -
Adrian Svanbäck BK Hacken Ativo 119 / 128 40% 3 15.10.2028 -
Tobías Ramírez River Plate Ativo 117 / 134 40% 1 15.10.2028 -
Babis Kostoulas Oxford United Ativo 148 / 157 40% 2 10.10.2028 -
Facinet Conté Young Boys Ativo 127 / 127 40% 1 10.10.2028 -
Yoan Bonny Porto Ativo 153 / 157 40% 1 08.10.2028 -
Markus Walker FC Nordsjaelland Ativo 125 / 124 40% 1 07.10.2028 -
Dor Turgeman Spartak Moscow Ativo 128 / 134 40% 1 03.10.2028 -
Mateo Joseph Leeds United Ativo 147 / 146 40% 1 26.09.2028 -
Pablo Felipe West Ham United Ativo 145 / 150 40% 2 23.09.2028 -
Petter Nosa Dahl Rapid Wien Ativo 130 / 133 40% 1 21.09.2028 -
Mohamed-Ali Cho Hull City Ativo 145 / 153 40% 3 18.09.2028 -
Emersonn Ipswich Town Ativo 132 / 138 40% 1 11.09.2028 -
Mathys Tel Tottenham Ativo 148 / 155 40% 1 11.09.2028 -
Alejo Veliz Bahia Ativo 146 / 143 40% 1 07.09.2028 -
Eli Junior Kroupi Bournemouth Ativo 156 / 152 40% 1 06.09.2028 -
Juan Gauto Basel Ativo 130 / 128 40% 1 04.09.2028 -
Yassir Zabiri Stade Rennais Ativo 136 / 140 40% 1 04.09.2028 -
Carl Rushworth Aston Villa Ativo 151 / 153 40% 1 31.07.2028 -
Joe Walsh Queens Park Rangers Ativo 120 / 119 40% 1 31.07.2028 -
Jorge Cabezas Hurtado Watford Ativo 127 / 123 40% 1 24.07.2028 -
Guillaume Restes Toulouse FC Ativo 147 / 152 40% 1 20.06.2028 -
Maarten Vandevoordt RB Leipzig Ativo 160 / 151 40% 1 20.06.2028 Mais informações
Fábio Carvalho Brentford Ativo 155 / 148 40% 2 14.06.2028 -
Matheus Cunha Manchester United Ativo 171 / 163 40% 1 14.06.2028 -
Patrick Beach Melbourne City Ativo 122 / 111 40% 1 02.06.2028 -
Chris Brady Ajax Ativo 145 / 152 40% 1 02.06.2028 -
Woo-Yeong Jeong Union Berlin Perdido 150 / 139 62% 1 01.06.2028 -
Killian Cahill Leyton Orient Ativo 111 / 112 40% 1 31.05.2028 -
Joe Whitworth Wigan Athletic Ativo 119 / 130 40% 1 31.05.2028 -
Lucas Høgsberg RC Strasbourg Ativo 142 / 138 40% 5 30.05.2028 -
Jan Bürger Northampton Town Ativo 119 / 123 40% 8 28.05.2028 -
Ayden Heaven Portsmouth Ativo 142 / 145 40% 4 26.05.2028 -
João Simões Sporting CP Ativo 137 / 141 40% 4 23.05.2028 -
Andrey Ivlev Nizhniy Novgorod Ativo 102 / 108 40% 2 18.05.2028 -
Thijs Kraaijeveld USM Alger Ativo 134 / 123 40% 2 14.05.2028 -
Illaijh de Ruijter ADO Den Haag Ativo 121 / 121 40% 2 11.05.2028 -
Kiani Inge Groningen Ativo 116 / 117 40% 1 10.05.2028 -
Daniel Banjaqui Benfica Ativo 120 / 128 40% 2 07.05.2028 -
Noahkai Banks FC Augsburg Ativo 151 / 151 40% 3 06.05.2028 Observar
Thato Sibiya Orlando Pirates Ativo 102 / 109 40% 1 02.05.2028 -
Honest Ahanor Atalanta Ativo 137 / 146 40% 7 01.05.2028 -
Pape Diong Westerlo Ativo 122 / 131 40% 1 01.05.2028 -
Héctor Fort Real Sociedad Ativo 146 / 142 40% 4 26.04.2028 -
Christos Mouzakitis Hull City Ativo 133 / 146 40% 1 22.04.2028 -
Josh Acheampong Everton Ativo 137 / 142 40% 6 17.04.2028 -
Mohammed El Âdfaoui Westerlo Ativo 114 / 119 40% 1 14.04.2028 -
Josh Nichols Oldham Athletic Ativo 123 / 121 40% 2 08.04.2028 -
Izan Merino Málaga Ativo 135 / 128 40% 6 27.03.2028 -
Kauã Moraes Flamengo Ativo 140 / 131 40% 3 23.03.2028 -
Sławomir Abramowicz Jagiellonia Ativo 140 / 150 40% 2 31.12.2027 -
Victor Hernandez Santa Fe Ativo 126 / 136 40% 10 11.12.2027 -
Fodé Sylla Sion Ativo 122 / 120 40% 3 09.12.2027 -
Caleb Yirenkyi Coventry City Ativo 145 / 141 40% 6 23.11.2027 -
Jakob Schöller Altach Ativo 105 / 112 40% 3 17.11.2027 -
Archie Gray Southampton Ativo 143 / 159 40% 2 08.11.2027 -
Esquerdinha Notts County Ativo 122 / 123 40% 1 02.11.2027 -
Kosta Nedeljković Aston Villa Ativo 140 / 144 40% 4 29.10.2027 -
Corsin Konietzke St. Gallen Ativo 114 / 122 40% 3 07.10.2027 -
Lucas Bergvall Tottenham Ativo 149 / 155 40% 5 20.09.2027 -
Yusi Alavés Ativo 129 / 134 40% 2 17.09.2027 -
Agustín Obregón River Plate Ativo 123 / 108 40% 1 17.09.2027 -
Nazareno Roselli Defensa y Justicia Ativo 105 / 115 40% 2 13.09.2027 -
Adrian Skogmar Malmo FF Ativo 117 / 129 40% 1 01.09.2027 -
Dejan Radonjić SV Ried Ativo 117 / 120 40% 2 31.08.2027 -
Mbekezeli Mbokazi Chicago Fire Ativo 136 / 127 40% 3 21.08.2027 -
Sascha Britschgi AC Milan Ativo 122 / 131 40% 3 20.08.2027 -
Ronan Kpakio AC Milan Ativo 114 / 127 40% 1 12.08.2027 -
Givairo Read Feyenoord Ativo 149 / 148 40% 4 09.08.2027 -
Victor Froholdt Porto Ativo 160 / 163 40% 2 09.08.2027 -
Kees Smit AZ Ativo 151 / 154 40% 4 29.07.2027 -
Ethan Williams Peterborough United Ativo 109 / 116 40% 3 28.07.2027 -
Romelle Donovan Brentford Ativo 134 / 136 40% 1 26.07.2027 -
Oscar Schwartau Norwich City Ativo 124 / 124 40% 1 26.07.2027 -
Jonathan Asp-Jensen Deportivo La Coruña Ativo 119 / 123 40% 1 23.07.2027 -
Ryan Oné Sheffield United Ativo 113 / 115 40% 1 19.07.2027 -
Jan Virgili Club Brugge Ativo 130 / 146 40% 2 17.07.2027 -
Mohamadou Kanté Crawley Town Ativo 124 / 121 40% 1 17.07.2027 -
Louis Leroux FC Nantes Ativo 132 / 133 40% 1 15.07.2027 -
Samuele di Benedetto Twente Ativo 120 / 119 40% 4 09.07.2027 -
Justin Treichel Roda Ativo 119 / 113 40% 1 05.07.2027 -
Nestory Irankunda Watford Ativo 114 / 128 40% 1 02.07.2027 -
Leo Sauer VfB Stuttgart Ativo 133 / 143 40% 1 26.06.2027 -
Mert Kömür FC Augsburg Ativo 127 / 127 40% 1 25.06.2027 -
Tiago Freitas Benfica Ativo 119 / 118 40% 1 23.06.2027 -
Nikolaus Wurmbrand Girona Ativo 126 / 128 40% 2 19.06.2027 -
Gonçalo Oliveira Benfica Ativo 115 / 115 40% 2 16.06.2027 -
Jens Stage Werder Bremen Ativo 139 / 146 58% 1 07.06.2027 -
Johnny Cardoso Atlético Madrid Ativo 151 / 154 40% 6 29.05.2027 -
James Garner Everton Ativo 154 / 148 40% 2 29.05.2027 -
Takefusa Kubo VfB Stuttgart Ativo 147 / 149 40% 3 28.05.2027 -
Lorenzo Colombo Genoa Ativo 143 / 133 40% 1 28.05.2027 -
Fran García Betis Ativo 152 / 146 40% 1 28.05.2027 -
Maximilian Beier Borussia Dortmund Ativo 154 / 154 40% 1 26.05.2027 -
Dušan Vlahović Hamburger SV Ativo 153 / 150 40% 5 25.05.2027 -
Thiago Brentford Ativo 143 / 139 40% 2 25.05.2027 -
Gavi Barcelona Ativo 167 / 164 40% 1 25.05.2027 -
Jarrad Branthwaite Everton Ativo 161 / 161 40% 1 25.05.2027 -
Marc Pubill Atlético Madrid Ativo 145 / 145 40% 1 23.05.2027 -
Maroan Sannadi Athletic Bilbao Ativo 137 / 137 40% 3 22.05.2027 -
Georges Mikautadze Villarreal Ativo 163 / 156 40% 2 21.05.2027 -
Mats Wieffer Brighton Ativo 152 / 143 40% 3 21.05.2027 -
Omar El Hilali Espanyol Ativo 148 / 148 40% 1 21.05.2027 -
Jonathan Dubasin Osasuna Ativo 147 / 135 40% 4 19.05.2027 -
Marvin Keller Chelsea Ativo 145 / 151 40% 4 19.05.2027 -
Troy Parrott Betis Ativo 147 / 139 40% 1 19.05.2027 -
Carlos Romero Villarreal Ativo 146 / 150 40% 3 18.05.2027 -
Andrés Martín Racing Santander Ativo 140 / 129 40% 4 16.05.2027 -
Oliver Dovin Coventry City Ativo 139 / 135 40% 3 16.05.2027 -
Isaac Romero Sevilla Ativo 153 / 145 40% 6 14.05.2027 -
Pau Víctor Braga Ativo 150 / 146 40% 4 14.05.2027 -
Adam Hložek TSG Hoffenheim Ativo 146 / 137 40% 4 11.05.2027 -
Miloš Kerkez Liverpool Ativo 155 / 155 40% 1 11.05.2027 -
Yussif Saidu Zaragoza Ativo 125 / 131 40% 1 11.05.2027 -
Lewis Hall Newcastle United Ativo 148 / 148 40% 5 09.05.2027 -
Dani Vivian Athletic Bilbao Ativo 154 / 146 40% 1 09.05.2027 -
Quinten Timber Crystal Palace Ativo 156 / 151 40% 1 07.05.2027 -
Charles Martin Bayern Munich Ativo 160 / 155 40% 1 07.05.2027 -
Alphonso Davies Bayern Munich Ativo 175 / 168 40% 3 06.05.2027 -
Giacomo Raspadori Atalanta Ativo 153 / 151 40% 1 05.05.2027 -
Abel Ruiz Girona Ativo 143 / 139 40% 1 04.05.2027 -
Pablo Barrios Atlético Madrid Ativo 159 / 156 40% 2 03.05.2027 -
Roberto Fernández Braga Ativo 144 / 144 40% 2 02.05.2027 -
Óscar Mingueza Crystal Palace Ativo 158 / 143 40% 5 01.05.2027 -
Nico O'Reilly Manchester City Ativo 157 / 163 40% 8 29.04.2027 -
Ousmane Diomande Nottingham Forest Ativo 152 / 152 40% 1 29.04.2027 -
Willian Pacho Paris Saint-Germain Ativo 160 / 161 40% 2 26.04.2027 -
Sven Botman Newcastle United Ativo 154 / 154 40% 1 25.04.2027 -
Deniz Ertaş Konyaspor Ativo 118 / 126 40% 2 23.04.2027 -
Nicolas Jackson Aston Villa Ativo 146 / 155 40% 2 22.04.2027 -
Ez Abde Betis Ativo 147 / 144 40% 1 20.04.2027 -
Doğan Alemdar Basaksehir Ativo 102 / 107 40% 1 19.04.2027 -
Radek Vítek Middlesbrough Ativo 129 / 138 40% 4 17.04.2027 -
João Pedro Chelsea Ativo 143 / 145 40% 2 14.04.2027 -
José Ángel Carmona Sevilla Ativo 144 / 145 40% 1 14.04.2027 -
Boubacar Kamara Aston Villa Ativo 158 / 163 40% 1 14.04.2027 -
Juan Diego Castillo Vitoria Guimaraes Ativo 127 / 120 40% 1 13.04.2027 -
Maxence Lacroix Chelsea Ativo 146 / 157 40% 4 10.04.2027 -
Rocco Vata Watford Ativo 131 / 121 40% 1 10.04.2027 -
Nico Schlotterbeck Borussia Dortmund Ativo 160 / 170 40% 1 08.04.2027 -
João Neves Paris Saint-Germain Ativo 168 / 174 40% 1 07.04.2027 -
Alex Scott Bournemouth Ativo 153 / 155 40% 1 05.04.2027 -
Moisés Caicedo Chelsea Ativo 171 / 170 40% 4 31.03.2027 -
Samuel Soares Benfica Ativo 131 / 139 40% 5 30.03.2027 -
Wilson Isidor Sunderland Ativo 141 / 132 40% 1 30.03.2027 -
Rodrigo Muniz Fulham Ativo 138 / 145 40% 2 27.03.2027 -
Mio Backhaus SC Freiburg Ativo 135 / 137 40% 3 24.03.2027 -
Aitor Fraga Real Sociedad Ativo 124 / 124 40% 2 16.03.2027 -
Josh Keeley Luton Town Ativo 131 / 123 40% 1 16.03.2027 -
Aurélien Tchouaméni Real Madrid Ativo 160 / 168 40% 1 13.03.2027 -
Marc Guéhi Manchester City Ativo 169 / 166 40% 1 13.03.2027 -
Joško Gvardiol Manchester City Ativo 174 / 162 40% 1 11.03.2027 -
Jan Paul van Hecke Tottenham Ativo 156 / 153 40% 1 10.03.2027 -
Leandrinho Sharjah Ativo 121 / 111 40% 1 10.03.2027 -
Senne Lammens Manchester United Ativo 151 / 151 40% 4 08.03.2027 -
Bruno Ogbus St. Pauli Ativo 132 / 132 40% 1 08.03.2027 -
Ryan Gravenberch Liverpool Ativo 156 / 168 40% 1 05.03.2027 -
Alexander Prass TSG Hoffenheim Ativo 129 / 142 58% 1 02.01.2027 -
Zion Suzuki Aston Villa Ativo 134 / 146 40% 2 30.12.2026 -
Dmytro Riznyk Racing Genk Ativo 142 / 140 40% 1 26.12.2026 -
Hugo Ekitiké Liverpool Ativo 168 / 166 40% 1 24.12.2026 -
Rodrygo Real Madrid Ativo 174 / 168 40% 1 21.12.2026 -
Karl Hein Werder Bremen Ativo 142 / 137 40% 2 18.12.2026 -
Luiz Júnior Villarreal Ativo 141 / 147 40% 1 14.12.2026 -
Lazar Carević Famalicao Ativo 135 / 130 40% 1 13.12.2026 -
Gabriel Brazão Santos Ativo 119 / 141 40% 1 04.12.2026 -
James Trafford Leeds United Ativo 151 / 144 40% 3 01.12.2026 -
Pedri Barcelona Ativo 178 / 185 40% 1 25.11.2026 -
Arthur Avom Ebong FC Lorient Ativo 134 / 125 40% 1 25.11.2026 -
Giorgi Mamardashvili Liverpool Ativo 150 / 163 40% 3 19.11.2026 -
Gonzalo Crettaz NEC Ativo 128 / 127 40% 1 19.11.2026 -
Lautaro Vargas Unión de Santa Fe Ativo 115 / 114 40% 2 18.11.2026 -
Francisco Conceição Köln Ativo 160 / 169 40% 1 15.11.2026 -
Nico Williams Athletic Bilbao Ativo 174 / 167 40% 1 13.11.2026 -
Hugo Souza Corinthians Ativo 124 / 144 40% 3 11.11.2026 -
Mads Hermansen West Ham United Ativo 132 / 137 40% 1 07.11.2026 -
Samuel Marques Grasshopper Ativo 118 / 110 40% 1 07.11.2026 -
Caoimhin Kelleher Brentford Ativo 154 / 153 40% 1 05.11.2026 -
Mile Svilar AS Roma Ativo 169 / 148 40% 1 28.10.2026 -
Grégoire Coudert Burnley Ativo 122 / 123 40% 1 25.10.2026 -
Kauã Santos Eintracht Frankfurt Ativo 137 / 129 40% 1 24.10.2026 -
Valentino Ilsanker Mattersburg Ativo 104 / 116 40% 1 19.10.2026 -
Khvicha Kvaratskhelia Paris Saint-Germain Ativo 161 / 173 40% 1 19.10.2026 -
Michael Olise Bayern Munich Ativo 183 / 179 40% 1 17.10.2026 -
Pablo Campos Levante Ativo 131 / 136 40% 1 11.10.2026 -
Anthony Patterson Wrexham Ativo 120 / 129 40% 1 08.10.2026 -
Valentín Aguiñagalde Temperley Ativo 117 / 123 40% 1 08.10.2026 -
Yaimar Medina Racing Genk Ativo 123 / 121 40% 1 07.10.2026 -